sensor_id;sensor_type;location;lat;lon;timestamp;pressure;altitude;pressure_sealevel;temperature
11321;BMP180;5715;48.234;14.320;2023-03-01T00:00:15;99321.00;;;9.50
11321;BMP180;5715;48.234;14.320;2023-03-01T00:03:03;99321.00;;;9.70
11321;BMP180;5715;48.234;14.320;2023-03-01T00:05:50;99313.00;;;9.50
11321;BMP180;5715;48.234;14.320;2023-03-01T00:08:38;99325.00;;;9.50
11321;BMP180;5715;48.234;14.320;2023-03-01T00:11:29;99311.00;;;9.50
11321;BMP180;5715;48.234;14.320;2023-03-01T00:14:17;99318.00;;;9.40
11321;BMP180;5715;48.234;14.320;2023-03-01T00:17:05;99322.00;;;9.50
11321;BMP180;5715;48.234;14.320;2023-03-01T00:19:52;99324.00;;;9.50
11321;BMP180;5715;48.234;14.320;2023-03-01T00:22:40;99316.00;;;9.20
11321;BMP180;5715;48.234;14.320;2023-03-01T00:25:27;99319.00;;;9.50
11321;BMP180;5715;48.234;14.320;2023-03-01T00:28:15;99308.00;;;9.40
11321;BMP180;5715;48.234;14.320;2023-03-01T00:31:12;99319.00;;;9.30
11321;BMP180;5715;48.234;14.320;2023-03-01T00:34:04;99321.00;;;9.40
11321;BMP180;5715;48.234;14.320;2023-03-01T00:36:52;99314.00;;;9.30
11321;BMP180;5715;48.234;14.320;2023-03-01T00:39:39;99318.00;;;9.30
11321;BMP180;5715;48.234;14.320;2023-03-01T00:42:27;99316.00;;;9.30
11321;BMP180;5715;48.234;14.320;2023-03-01T00:45:14;99316.00;;;9.20
11321;BMP180;5715;48.234;14.320;2023-03-01T00:48:02;99319.00;;;9.00
11321;BMP180;5715;48.234;14.320;2023-03-01T00:50:50;99309.00;;;9.00
11321;BMP180;5715;48.234;14.320;2023-03-01T00:53:37;99316.00;;;9.00
11321;BMP180;5715;48.234;14.320;2023-03-01T00:56:26;99308.00;;;8.90
11321;BMP180;5715;48.234;14.320;2023-03-01T00:59:13;99316.00;;;8.70
11321;BMP180;5715;48.234;14.320;2023-03-01T01:02:01;99298.00;;;8.70
11321;BMP180;5715;48.234;14.320;2023-03-01T01:04:49;99289.00;;;9.00
11321;BMP180;5715;48.234;14.320;2023-03-01T01:07:37;99294.00;;;9.10
11321;BMP180;5715;48.234;14.320;2023-03-01T01:10:25;99283.00;;;9.10
11321;BMP180;5715;48.234;14.320;2023-03-01T01:13:13;99284.00;;;9.00
11321;BMP180;5715;48.234;14.320;2023-03-01T01:16:02;99272.00;;;8.70
11321;BMP180;5715;48.234;14.320;2023-03-01T01:18:50;99273.00;;;8.80
11321;BMP180;5715;48.234;14.320;2023-03-01T01:21:38;99270.00;;;8.90
11321;BMP180;5715;48.234;14.320;2023-03-01T01:24:25;99265.00;;;8.90
11321;BMP180;5715;48.234;14.320;2023-03-01T01:27:13;99263.00;;;9.00
11321;BMP180;5715;48.234;14.320;2023-03-01T01:30:00;99263.00;;;8.90
11321;BMP180;5715;48.234;14.320;2023-03-01T01:32:48;99260.00;;;8.80
11321;BMP180;5715;48.234;14.320;2023-03-01T01:35:36;99256.00;;;8.90
11321;BMP180;5715;48.234;14.320;2023-03-01T01:38:23;99260.00;;;8.80
11321;BMP180;5715;48.234;14.320;2023-03-01T01:41:13;99257.00;;;8.70
11321;BMP180;5715;48.234;14.320;2023-03-01T01:44:22;99261.00;;;8.70
11321;BMP180;5715;48.234;14.320;2023-03-01T01:47:20;99256.00;;;8.70
11321;BMP180;5715;48.234;14.320;2023-03-01T01:50:18;99264.00;;;8.70
11321;BMP180;5715;48.234;14.320;2023-03-01T01:53:12;99253.00;;;8.70
11321;BMP180;5715;48.234;14.320;2023-03-01T01:56:02;99252.00;;;8.70
11321;BMP180;5715;48.234;14.320;2023-03-01T01:58:53;99256.00;;;8.60
11321;BMP180;5715;48.234;14.320;2023-03-01T02:01:41;99239.00;;;8.70
11321;BMP180;5715;48.234;14.320;2023-03-01T02:04:31;99245.00;;;8.70
11321;BMP180;5715;48.234;14.320;2023-03-01T02:07:24;99246.00;;;8.40
11321;BMP180;5715;48.234;14.320;2023-03-01T02:10:14;99227.00;;;8.50
11321;BMP180;5715;48.234;14.320;2023-03-01T02:13:03;99240.00;;;8.30
11321;BMP180;5715;48.234;14.320;2023-03-01T02:15:51;99233.00;;;8.40
11321;BMP180;5715;48.234;14.320;2023-03-01T02:18:41;99230.00;;;8.40
11321;BMP180;5715;48.234;14.320;2023-03-01T02:22:05;99231.00;;;8.50
11321;BMP180;5715;48.234;14.320;2023-03-01T02:31:06;99221.00;;;8.60
11321;BMP180;5715;48.234;14.320;2023-03-01T02:34:18;99215.00;;;8.60
11321;BMP180;5715;48.234;14.320;2023-03-01T02:37:13;99225.00;;;8.60
11321;BMP180;5715;48.234;14.320;2023-03-01T02:40:09;99215.00;;;8.40
11321;BMP180;5715;48.234;14.320;2023-03-01T02:42:59;99219.00;;;8.40
11321;BMP180;5715;48.234;14.320;2023-03-01T02:45:52;99222.00;;;8.40
11321;BMP180;5715;48.234;14.320;2023-03-01T02:48:59;99212.00;;;8.50
11321;BMP180;5715;48.234;14.320;2023-03-01T02:52:46;99224.00;;;8.40
11321;BMP180;5715;48.234;14.320;2023-03-01T02:55:35;99218.00;;;8.20
11321;BMP180;5715;48.234;14.320;2023-03-01T02:58:22;99211.00;;;8.20
11321;BMP180;5715;48.234;14.320;2023-03-01T03:01:10;99210.00;;;8.20
11321;BMP180;5715;48.234;14.320;2023-03-01T03:04:00;99205.00;;;8.10
11321;BMP180;5715;48.234;14.320;2023-03-01T03:06:50;99206.00;;;8.30
11321;BMP180;5715;48.234;14.320;2023-03-01T03:09:38;99207.00;;;8.30
11321;BMP180;5715;48.234;14.320;2023-03-01T03:12:25;99208.00;;;8.30
11321;BMP180;5715;48.234;14.320;2023-03-01T03:15:13;99206.00;;;8.40
11321;BMP180;5715;48.234;14.320;2023-03-01T03:18:00;99211.00;;;8.50
11321;BMP180;5715;48.234;14.320;2023-03-01T03:20:48;99207.00;;;8.40
11321;BMP180;5715;48.234;14.320;2023-03-01T03:23:40;99215.00;;;8.40
11321;BMP180;5715;48.234;14.320;2023-03-01T03:26:27;99204.00;;;8.20
11321;BMP180;5715;48.234;14.320;2023-03-01T03:29:16;99193.00;;;8.30
11321;BMP180;5715;48.234;14.320;2023-03-01T03:32:03;99194.00;;;8.40
11321;BMP180;5715;48.234;14.320;2023-03-01T03:34:51;99193.00;;;8.40
11321;BMP180;5715;48.234;14.320;2023-03-01T03:37:40;99185.00;;;8.30
11321;BMP180;5715;48.234;14.320;2023-03-01T03:41:02;99183.00;;;8.20
11321;BMP180;5715;48.234;14.320;2023-03-01T03:43:50;99176.00;;;8.10
11321;BMP180;5715;48.234;14.320;2023-03-01T03:46:38;99168.00;;;8.10
11321;BMP180;5715;48.234;14.320;2023-03-01T03:49:25;99172.00;;;8.20
11321;BMP180;5715;48.234;14.320;2023-03-01T03:52:13;99175.00;;;8.20
11321;BMP180;5715;48.234;14.320;2023-03-01T03:55:00;99185.00;;;8.30
11321;BMP180;5715;48.234;14.320;2023-03-01T03:57:48;99178.00;;;8.40
11321;BMP180;5715;48.234;14.320;2023-03-01T04:00:42;99174.00;;;8.20
11321;BMP180;5715;48.234;14.320;2023-03-01T04:03:32;99183.00;;;8.20
11321;BMP180;5715;48.234;14.320;2023-03-01T04:06:20;99186.00;;;8.00
11321;BMP180;5715;48.234;14.320;2023-03-01T04:09:07;99181.00;;;8.20
11321;BMP180;5715;48.234;14.320;2023-03-01T04:11:55;99187.00;;;8.30
11321;BMP180;5715;48.234;14.320;2023-03-01T04:14:42;99194.00;;;8.30
11321;BMP180;5715;48.234;14.320;2023-03-01T04:17:30;99182.00;;;8.20
11321;BMP180;5715;48.234;14.320;2023-03-01T04:20:24;99177.00;;;8.20
11321;BMP180;5715;48.234;14.320;2023-03-01T04:23:16;99175.00;;;8.20
11321;BMP180;5715;48.234;14.320;2023-03-01T04:26:06;99183.00;;;8.10
11321;BMP180;5715;48.234;14.320;2023-03-01T04:28:54;99192.00;;;8.00
11321;BMP180;5715;48.234;14.320;2023-03-01T04:31:41;99175.00;;;8.20
11321;BMP180;5715;48.234;14.320;2023-03-01T04:34:30;99184.00;;;8.10
11321;BMP180;5715;48.234;14.320;2023-03-01T04:37:17;99180.00;;;8.00
11321;BMP180;5715;48.234;14.320;2023-03-01T04:40:06;99182.00;;;8.00
11321;BMP180;5715;48.234;14.320;2023-03-01T04:43:04;99173.00;;;7.90
11321;BMP180;5715;48.234;14.320;2023-03-01T04:45:51;99175.00;;;7.80
11321;BMP180;5715;48.234;14.320;2023-03-01T04:48:41;99168.00;;;7.90
11321;BMP180;5715;48.234;14.320;2023-03-01T04:51:29;99167.00;;;7.70
11321;BMP180;5715;48.234;14.320;2023-03-01T04:54:16;99174.00;;;7.90
11321;BMP180;5715;48.234;14.320;2023-03-01T04:57:04;99175.00;;;7.90
11321;BMP180;5715;48.234;14.320;2023-03-01T04:59:51;99167.00;;;7.90
11321;BMP180;5715;48.234;14.320;2023-03-01T05:02:39;99173.00;;;8.10
11321;BMP180;5715;48.234;14.320;2023-03-01T05:05:36;99169.00;;;8.00
11321;BMP180;5715;48.234;14.320;2023-03-01T05:08:24;99166.00;;;8.10
11321;BMP180;5715;48.234;14.320;2023-03-01T05:11:12;99165.00;;;8.10
11321;BMP180;5715;48.234;14.320;2023-03-01T05:14:00;99167.00;;;8.10
11321;BMP180;5715;48.234;14.320;2023-03-01T05:16:48;99178.00;;;8.10
11321;BMP180;5715;48.234;14.320;2023-03-01T05:19:35;99181.00;;;7.80
11321;BMP180;5715;48.234;14.320;2023-03-01T05:22:23;99170.00;;;7.90
11321;BMP180;5715;48.234;14.320;2023-03-01T05:25:10;99175.00;;;8.00
11321;BMP180;5715;48.234;14.320;2023-03-01T05:27:59;99178.00;;;8.00
11321;BMP180;5715;48.234;14.320;2023-03-01T05:30:52;99187.00;;;8.00
11321;BMP180;5715;48.234;14.320;2023-03-01T05:33:40;99178.00;;;8.00
11321;BMP180;5715;48.234;14.320;2023-03-01T05:36:28;99182.00;;;8.00
11321;BMP180;5715;48.234;14.320;2023-03-01T05:39:16;99186.00;;;7.80
11321;BMP180;5715;48.234;14.320;2023-03-01T05:42:04;99180.00;;;7.80
11321;BMP180;5715;48.234;14.320;2023-03-01T05:44:51;99178.00;;;7.70
11321;BMP180;5715;48.234;14.320;2023-03-01T05:47:44;99190.00;;;7.90
11321;BMP180;5715;48.234;14.320;2023-03-01T05:50:37;99188.00;;;7.60
11321;BMP180;5715;48.234;14.320;2023-03-01T05:53:24;99190.00;;;7.90
11321;BMP180;5715;48.234;14.320;2023-03-01T05:56:13;99182.00;;;7.80
11321;BMP180;5715;48.234;14.320;2023-03-01T05:59:03;99193.00;;;8.10
11321;BMP180;5715;48.234;14.320;2023-03-01T06:01:52;99194.00;;;7.80
11321;BMP180;5715;48.234;14.320;2023-03-01T06:04:40;99189.00;;;7.90
11321;BMP180;5715;48.234;14.320;2023-03-01T06:07:28;99190.00;;;8.20
11321;BMP180;5715;48.234;14.320;2023-03-01T06:10:17;99194.00;;;8.00
11321;BMP180;5715;48.234;14.320;2023-03-01T06:13:05;99197.00;;;8.00
11321;BMP180;5715;48.234;14.320;2023-03-01T06:15:53;99196.00;;;7.80
11321;BMP180;5715;48.234;14.320;2023-03-01T06:18:42;99191.00;;;7.80
11321;BMP180;5715;48.234;14.320;2023-03-01T06:21:29;99195.00;;;8.10
11321;BMP180;5715;48.234;14.320;2023-03-01T06:24:17;99206.00;;;8.10
11321;BMP180;5715;48.234;14.320;2023-03-01T06:27:04;99197.00;;;8.20
11321;BMP180;5715;48.234;14.320;2023-03-01T06:29:52;99200.00;;;8.10
11321;BMP180;5715;48.234;14.320;2023-03-01T06:32:41;99188.00;;;7.90
11321;BMP180;5715;48.234;14.320;2023-03-01T06:35:31;99192.00;;;7.80
11321;BMP180;5715;48.234;14.320;2023-03-01T06:38:19;99192.00;;;8.20
11321;BMP180;5715;48.234;14.320;2023-03-01T06:41:07;99197.00;;;8.20
11321;BMP180;5715;48.234;14.320;2023-03-01T06:43:54;99197.00;;;7.90
11321;BMP180;5715;48.234;14.320;2023-03-01T06:46:42;99202.00;;;8.10
11321;BMP180;5715;48.234;14.320;2023-03-01T06:49:29;99202.00;;;8.10
11321;BMP180;5715;48.234;14.320;2023-03-01T06:52:17;99201.00;;;8.30
11321;BMP180;5715;48.234;14.320;2023-03-01T06:55:06;99196.00;;;8.40
11321;BMP180;5715;48.234;14.320;2023-03-01T06:57:58;99191.00;;;8.70
11321;BMP180;5715;48.234;14.320;2023-03-01T07:00:47;99193.00;;;9.10
11321;BMP180;5715;48.234;14.320;2023-03-01T07:03:34;99194.00;;;9.00
11321;BMP180;5715;48.234;14.320;2023-03-01T07:06:23;99185.00;;;9.10
11321;BMP180;5715;48.234;14.320;2023-03-01T07:09:10;99191.00;;;8.70
11321;BMP180;5715;48.234;14.320;2023-03-01T07:11:59;99188.00;;;9.20
11321;BMP180;5715;48.234;14.320;2023-03-01T07:14:47;99186.00;;;9.30
11321;BMP180;5715;48.234;14.320;2023-03-01T07:17:35;99187.00;;;9.20
11321;BMP180;5715;48.234;14.320;2023-03-01T07:20:22;99188.00;;;9.50
11321;BMP180;5715;48.234;14.320;2023-03-01T07:23:12;99181.00;;;9.70
11321;BMP180;5715;48.234;14.320;2023-03-01T07:26:00;99183.00;;;10.10
11321;BMP180;5715;48.234;14.320;2023-03-01T07:28:48;99179.00;;;10.00
11321;BMP180;5715;48.234;14.320;2023-03-01T07:31:36;99181.00;;;9.90
11321;BMP180;5715;48.234;14.320;2023-03-01T07:34:24;99178.00;;;9.60
11321;BMP180;5715;48.234;14.320;2023-03-01T07:37:12;99173.00;;;10.10
11321;BMP180;5715;48.234;14.320;2023-03-01T07:39:59;99167.00;;;9.90
11321;BMP180;5715;48.234;14.320;2023-03-01T07:42:47;99164.00;;;10.20
11321;BMP180;5715;48.234;14.320;2023-03-01T07:45:34;99153.00;;;9.80
11321;BMP180;5715;48.234;14.320;2023-03-01T07:48:22;99153.00;;;10.00
11321;BMP180;5715;48.234;14.320;2023-03-01T07:51:10;99156.00;;;10.30
11321;BMP180;5715;48.234;14.320;2023-03-01T07:53:58;99152.00;;;10.20
11321;BMP180;5715;48.234;14.320;2023-03-01T07:56:45;99153.00;;;10.20
11321;BMP180;5715;48.234;14.320;2023-03-01T07:59:32;99148.00;;;10.60
11321;BMP180;5715;48.234;14.320;2023-03-01T08:02:20;99147.00;;;10.10
11321;BMP180;5715;48.234;14.320;2023-03-01T08:05:09;99141.00;;;10.20
11321;BMP180;5715;48.234;14.320;2023-03-01T08:07:57;99152.00;;;10.70
11321;BMP180;5715;48.234;14.320;2023-03-01T08:10:45;99154.00;;;10.40
11321;BMP180;5715;48.234;14.320;2023-03-01T08:13:33;99146.00;;;10.90
11321;BMP180;5715;48.234;14.320;2023-03-01T08:16:21;99141.00;;;10.60
11321;BMP180;5715;48.234;14.320;2023-03-01T08:19:11;99152.00;;;10.90
11321;BMP180;5715;48.234;14.320;2023-03-01T08:21:59;99143.00;;;10.50
11321;BMP180;5715;48.234;14.320;2023-03-01T08:24:47;99145.00;;;11.20
11321;BMP180;5715;48.234;14.320;2023-03-01T08:27:34;99150.00;;;11.40
11321;BMP180;5715;48.234;14.320;2023-03-01T08:30:22;99149.00;;;11.30
11321;BMP180;5715;48.234;14.320;2023-03-01T08:33:11;99145.00;;;11.40
11321;BMP180;5715;48.234;14.320;2023-03-01T08:36:04;99122.00;;;11.10
11321;BMP180;5715;48.234;14.320;2023-03-01T08:38:54;99132.00;;;11.40
11321;BMP180;5715;48.234;14.320;2023-03-01T08:41:42;99120.00;;;11.40
11321;BMP180;5715;48.234;14.320;2023-03-01T08:44:33;99118.00;;;11.40
11321;BMP180;5715;48.234;14.320;2023-03-01T08:47:22;99110.00;;;11.30
11321;BMP180;5715;48.234;14.320;2023-03-01T08:50:10;99115.00;;;11.80
11321;BMP180;5715;48.234;14.320;2023-03-01T08:52:57;99107.00;;;12.10
11321;BMP180;5715;48.234;14.320;2023-03-01T08:55:45;99098.00;;;12.50
11321;BMP180;5715;48.234;14.320;2023-03-01T08:58:32;99107.00;;;12.30
11321;BMP180;5715;48.234;14.320;2023-03-01T09:01:20;99099.00;;;12.00
11321;BMP180;5715;48.234;14.320;2023-03-01T09:04:07;99089.00;;;12.00
11321;BMP180;5715;48.234;14.320;2023-03-01T09:06:54;99089.00;;;11.60
11321;BMP180;5715;48.234;14.320;2023-03-01T09:09:42;99083.00;;;12.10
11321;BMP180;5715;48.234;14.320;2023-03-01T09:12:29;99081.00;;;11.80
11321;BMP180;5715;48.234;14.320;2023-03-01T09:15:17;99063.00;;;12.50
11321;BMP180;5715;48.234;14.320;2023-03-01T09:18:05;99057.00;;;12.10
11321;BMP180;5715;48.234;14.320;2023-03-01T09:20:53;99058.00;;;12.10
11321;BMP180;5715;48.234;14.320;2023-03-01T09:23:45;99063.00;;;12.30
11321;BMP180;5715;48.234;14.320;2023-03-01T09:26:32;99061.00;;;12.70
11321;BMP180;5715;48.234;14.320;2023-03-01T09:29:20;99073.00;;;12.40
11321;BMP180;5715;48.234;14.320;2023-03-01T09:32:08;99059.00;;;12.60
11321;BMP180;5715;48.234;14.320;2023-03-01T09:34:56;99055.00;;;12.90
11321;BMP180;5715;48.234;14.320;2023-03-01T09:37:52;99062.00;;;13.20
11321;BMP180;5715;48.234;14.320;2023-03-01T09:40:44;99035.00;;;12.60
11321;BMP180;5715;48.234;14.320;2023-03-01T09:43:45;99040.00;;;13.80
11321;BMP180;5715;48.234;14.320;2023-03-01T09:46:42;99035.00;;;13.20
11321;BMP180;5715;48.234;14.320;2023-03-01T09:49:34;99027.00;;;12.80
11321;BMP180;5715;48.234;14.320;2023-03-01T09:52:34;99031.00;;;13.10
11321;BMP180;5715;48.234;14.320;2023-03-01T09:55:54;99036.00;;;13.40
11321;BMP180;5715;48.234;14.320;2023-03-01T10:02:38;99015.00;;;13.10
11321;BMP180;5715;48.234;14.320;2023-03-01T10:05:52;99031.00;;;13.70
11321;BMP180;5715;48.234;14.320;2023-03-01T10:09:02;99001.00;;;13.50
11321;BMP180;5715;48.234;14.320;2023-03-01T10:11:55;99015.00;;;13.30
11321;BMP180;5715;48.234;14.320;2023-03-01T10:15:11;99017.00;;;14.30
11321;BMP180;5715;48.234;14.320;2023-03-01T10:18:12;99012.00;;;14.60
11321;BMP180;5715;48.234;14.320;2023-03-01T10:21:25;99002.00;;;14.70
11321;BMP180;5715;48.234;14.320;2023-03-01T10:24:16;99001.00;;;14.80
11321;BMP180;5715;48.234;14.320;2023-03-01T10:30:35;98998.00;;;14.90
11321;BMP180;5715;48.234;14.320;2023-03-01T10:33:33;98980.00;;;14.70
11321;BMP180;5715;48.234;14.320;2023-03-01T10:36:23;98983.00;;;14.70
11321;BMP180;5715;48.234;14.320;2023-03-01T10:39:18;98975.00;;;14.60
11321;BMP180;5715;48.234;14.320;2023-03-01T10:42:32;98972.00;;;15.00
11321;BMP180;5715;48.234;14.320;2023-03-01T10:45:36;98960.00;;;14.70
11321;BMP180;5715;48.234;14.320;2023-03-01T10:48:26;98950.00;;;14.10
11321;BMP180;5715;48.234;14.320;2023-03-01T10:51:18;98948.00;;;14.50
11321;BMP180;5715;48.234;14.320;2023-03-01T10:54:20;98938.00;;;14.10
11321;BMP180;5715;48.234;14.320;2023-03-01T10:57:36;98938.00;;;14.50
11321;BMP180;5715;48.234;14.320;2023-03-01T11:00:28;98937.00;;;14.80
11321;BMP180;5715;48.234;14.320;2023-03-01T11:03:24;98935.00;;;14.80
11321;BMP180;5715;48.234;14.320;2023-03-01T11:09:21;98923.00;;;15.40
11321;BMP180;5715;48.234;14.320;2023-03-01T11:12:15;98917.00;;;14.90
11321;BMP180;5715;48.234;14.320;2023-03-01T11:15:04;98926.00;;;15.20
11321;BMP180;5715;48.234;14.320;2023-03-01T11:17:52;98914.00;;;15.40
11321;BMP180;5715;48.234;14.320;2023-03-01T11:20:56;98915.00;;;15.30
11321;BMP180;5715;48.234;14.320;2023-03-01T11:23:46;98905.00;;;14.70
11321;BMP180;5715;48.234;14.320;2023-03-01T11:26:40;98906.00;;;14.90
11321;BMP180;5715;48.234;14.320;2023-03-01T11:29:40;98897.00;;;15.80
11321;BMP180;5715;48.234;14.320;2023-03-01T11:36:19;98884.00;;;16.20
11321;BMP180;5715;48.234;14.320;2023-03-01T11:39:37;98886.00;;;16.30
11321;BMP180;5715;48.234;14.320;2023-03-01T11:53:00;98853.00;;;15.00
11321;BMP180;5715;48.234;14.320;2023-03-01T11:56:09;98877.00;;;15.90
11321;BMP180;5715;48.234;14.320;2023-03-01T12:18:58;98857.00;;;15.60
11321;BMP180;5715;48.234;14.320;2023-03-01T12:25:21;98857.00;;;16.10
11321;BMP180;5715;48.234;14.320;2023-03-01T12:28:38;98842.00;;;15.80
11321;BMP180;5715;48.234;14.320;2023-03-01T12:32:25;98847.00;;;16.20
11321;BMP180;5715;48.234;14.320;2023-03-01T12:36:22;98839.00;;;15.80
11321;BMP180;5715;48.234;14.320;2023-03-01T12:46:23;98836.00;;;15.80
11321;BMP180;5715;48.234;14.320;2023-03-01T12:50:00;98844.00;;;15.60
11321;BMP180;5715;48.234;14.320;2023-03-01T12:53:35;98841.00;;;16.30
11321;BMP180;5715;48.234;14.320;2023-03-01T12:56:30;98840.00;;;16.40
11321;BMP180;5715;48.234;14.320;2023-03-01T13:00:14;98847.00;;;16.70
11321;BMP180;5715;48.234;14.320;2023-03-01T13:06:38;98848.00;;;16.80
11321;BMP180;5715;48.234;14.320;2023-03-01T13:10:46;98837.00;;;16.40
11321;BMP180;5715;48.234;14.320;2023-03-01T13:13:37;98830.00;;;16.60
11321;BMP180;5715;48.234;14.320;2023-03-01T13:19:27;98824.00;;;16.40
11321;BMP180;5715;48.234;14.320;2023-03-01T13:22:32;98816.00;;;16.00
11321;BMP180;5715;48.234;14.320;2023-03-01T13:25:22;98816.00;;;16.10
11321;BMP180;5715;48.234;14.320;2023-03-01T13:34:42;98819.00;;;16.00
11321;BMP180;5715;48.234;14.320;2023-03-01T13:37:40;98818.00;;;15.90
11321;BMP180;5715;48.234;14.320;2023-03-01T13:43:35;98816.00;;;15.80
11321;BMP180;5715;48.234;14.320;2023-03-01T13:46:24;98814.00;;;15.40
11321;BMP180;5715;48.234;14.320;2023-03-01T13:49:22;98816.00;;;16.50
11321;BMP180;5715;48.234;14.320;2023-03-01T13:52:45;98810.00;;;16.40
11321;BMP180;5715;48.234;14.320;2023-03-01T13:55:54;98814.00;;;16.10
11321;BMP180;5715;48.234;14.320;2023-03-01T13:58:54;98806.00;;;16.00
11321;BMP180;5715;48.234;14.320;2023-03-01T14:01:59;98809.00;;;15.80
11321;BMP180;5715;48.234;14.320;2023-03-01T14:04:58;98796.00;;;16.40
11321;BMP180;5715;48.234;14.320;2023-03-01T14:07:51;98791.00;;;16.40
11321;BMP180;5715;48.234;14.320;2023-03-01T14:14:17;98793.00;;;15.90
11321;BMP180;5715;48.234;14.320;2023-03-01T14:20:26;98805.00;;;16.80
11321;BMP180;5715;48.234;14.320;2023-03-01T14:23:23;98804.00;;;16.70
11321;BMP180;5715;48.234;14.320;2023-03-01T14:26:11;98793.00;;;16.30
11321;BMP180;5715;48.234;14.320;2023-03-01T14:28:59;98776.00;;;16.20
11321;BMP180;5715;48.234;14.320;2023-03-01T14:31:47;98779.00;;;16.60
11321;BMP180;5715;48.234;14.320;2023-03-01T14:34:48;98770.00;;;15.90
11321;BMP180;5715;48.234;14.320;2023-03-01T14:37:36;98782.00;;;16.10
11321;BMP180;5715;48.234;14.320;2023-03-01T14:40:34;98782.00;;;15.80
11321;BMP180;5715;48.234;14.320;2023-03-01T14:43:24;98786.00;;;16.50
11321;BMP180;5715;48.234;14.320;2023-03-01T14:46:38;98787.00;;;16.50
11321;BMP180;5715;48.234;14.320;2023-03-01T14:49:31;98784.00;;;16.40
11321;BMP180;5715;48.234;14.320;2023-03-01T14:52:31;98773.00;;;16.40
11321;BMP180;5715;48.234;14.320;2023-03-01T14:55:34;98777.00;;;16.10
11321;BMP180;5715;48.234;14.320;2023-03-01T14:58:25;98774.00;;;16.10
11321;BMP180;5715;48.234;14.320;2023-03-01T15:01:16;98762.00;;;16.30
11321;BMP180;5715;48.234;14.320;2023-03-01T15:04:11;98775.00;;;16.30
11321;BMP180;5715;48.234;14.320;2023-03-01T15:06:59;98769.00;;;16.30
11321;BMP180;5715;48.234;14.320;2023-03-01T15:09:52;98770.00;;;15.80
11321;BMP180;5715;48.234;14.320;2023-03-01T15:12:41;98777.00;;;15.90
11321;BMP180;5715;48.234;14.320;2023-03-01T15:15:32;98767.00;;;16.60
11321;BMP180;5715;48.234;14.320;2023-03-01T15:18:26;98769.00;;;16.70
11321;BMP180;5715;48.234;14.320;2023-03-01T15:21:16;98767.00;;;16.80
11321;BMP180;5715;48.234;14.320;2023-03-01T15:24:20;98764.00;;;16.60
11321;BMP180;5715;48.234;14.320;2023-03-01T15:27:19;98764.00;;;16.60
11321;BMP180;5715;48.234;14.320;2023-03-01T15:30:38;98764.00;;;16.30
11321;BMP180;5715;48.234;14.320;2023-03-01T15:36:47;98767.00;;;16.70
11321;BMP180;5715;48.234;14.320;2023-03-01T15:39:52;98763.00;;;16.10
11321;BMP180;5715;48.234;14.320;2023-03-01T15:42:40;98772.00;;;16.10
11321;BMP180;5715;48.234;14.320;2023-03-01T15:45:30;98777.00;;;15.60
11321;BMP180;5715;48.234;14.320;2023-03-01T15:48:19;98776.00;;;15.60
11321;BMP180;5715;48.234;14.320;2023-03-01T15:51:13;98781.00;;;16.00
11321;BMP180;5715;48.234;14.320;2023-03-01T15:54:23;98780.00;;;15.80
11321;BMP180;5715;48.234;14.320;2023-03-01T15:57:15;98773.00;;;15.30
11321;BMP180;5715;48.234;14.320;2023-03-01T16:00:03;98788.00;;;15.60
11321;BMP180;5715;48.234;14.320;2023-03-01T16:02:58;98793.00;;;15.30
11321;BMP180;5715;48.234;14.320;2023-03-01T16:05:49;98798.00;;;15.30
11321;BMP180;5715;48.234;14.320;2023-03-01T16:08:38;98806.00;;;15.20
11321;BMP180;5715;48.234;14.320;2023-03-01T16:11:26;98803.00;;;14.90
11321;BMP180;5715;48.234;14.320;2023-03-01T16:14:17;98798.00;;;14.80
11321;BMP180;5715;48.234;14.320;2023-03-01T16:17:05;98807.00;;;15.20
11321;BMP180;5715;48.234;14.320;2023-03-01T16:19:55;98804.00;;;15.00
11321;BMP180;5715;48.234;14.320;2023-03-01T16:22:51;98807.00;;;15.20
11321;BMP180;5715;48.234;14.320;2023-03-01T16:25:39;98815.00;;;14.70
11321;BMP180;5715;48.234;14.320;2023-03-01T16:28:27;98810.00;;;14.90
11321;BMP180;5715;48.234;14.320;2023-03-01T16:31:19;98810.00;;;14.50
11321;BMP180;5715;48.234;14.320;2023-03-01T16:34:08;98820.00;;;14.20
11321;BMP180;5715;48.234;14.320;2023-03-01T16:36:55;98823.00;;;14.30
11321;BMP180;5715;48.234;14.320;2023-03-01T16:39:43;98831.00;;;14.60
11321;BMP180;5715;48.234;14.320;2023-03-01T16:42:35;98831.00;;;14.60
11321;BMP180;5715;48.234;14.320;2023-03-01T16:45:23;98842.00;;;14.80
11321;BMP180;5715;48.234;14.320;2023-03-01T16:48:12;98840.00;;;14.70
11321;BMP180;5715;48.234;14.320;2023-03-01T16:51:03;98843.00;;;14.60
11321;BMP180;5715;48.234;14.320;2023-03-01T16:53:51;98840.00;;;14.70
11321;BMP180;5715;48.234;14.320;2023-03-01T16:56:41;98845.00;;;14.50
11321;BMP180;5715;48.234;14.320;2023-03-01T16:59:29;98848.00;;;14.50
11321;BMP180;5715;48.234;14.320;2023-03-01T17:02:17;98853.00;;;14.30
11321;BMP180;5715;48.234;14.320;2023-03-01T17:05:08;98859.00;;;14.40
11321;BMP180;5715;48.234;14.320;2023-03-01T17:07:57;98859.00;;;14.60
11321;BMP180;5715;48.234;14.320;2023-03-01T17:10:47;98872.00;;;14.10
11321;BMP180;5715;48.234;14.320;2023-03-01T17:13:36;98867.00;;;14.40
11321;BMP180;5715;48.234;14.320;2023-03-01T17:16:27;98869.00;;;14.00
11321;BMP180;5715;48.234;14.320;2023-03-01T17:19:18;98872.00;;;14.30
11321;BMP180;5715;48.234;14.320;2023-03-01T17:22:09;98871.00;;;14.20
11321;BMP180;5715;48.234;14.320;2023-03-01T17:24:57;98870.00;;;14.50
11321;BMP180;5715;48.234;14.320;2023-03-01T17:27:45;98867.00;;;14.30
11321;BMP180;5715;48.234;14.320;2023-03-01T17:30:33;98877.00;;;14.30
11321;BMP180;5715;48.234;14.320;2023-03-01T17:33:21;98882.00;;;14.10
11321;BMP180;5715;48.234;14.320;2023-03-01T17:36:08;98874.00;;;14.10
11321;BMP180;5715;48.234;14.320;2023-03-01T17:38:56;98884.00;;;14.20
11321;BMP180;5715;48.234;14.320;2023-03-01T17:41:43;98890.00;;;13.90
11321;BMP180;5715;48.234;14.320;2023-03-01T17:44:32;98890.00;;;13.70
11321;BMP180;5715;48.234;14.320;2023-03-01T17:47:22;98890.00;;;13.80
11321;BMP180;5715;48.234;14.320;2023-03-01T17:50:11;98890.00;;;13.70
11321;BMP180;5715;48.234;14.320;2023-03-01T17:52:58;98882.00;;;13.90
11321;BMP180;5715;48.234;14.320;2023-03-01T17:55:47;98889.00;;;13.60
11321;BMP180;5715;48.234;14.320;2023-03-01T17:58:40;98886.00;;;13.50
11321;BMP180;5715;48.234;14.320;2023-03-01T18:01:27;98881.00;;;13.60
11321;BMP180;5715;48.234;14.320;2023-03-01T18:04:15;98884.00;;;13.50
11321;BMP180;5715;48.234;14.320;2023-03-01T18:07:04;98879.00;;;13.30